• Join FlightAware (Why Join?)
  • Login
  • US Flag 
04:59AM EST


 

Airport Tracker/Info


-or-


 

Live Flight TrackerFlight Track Log ✈ UAL495 ✈ 28-Apr-2013 ✈ KLAX - KDEN

Flight Track Log - Related Links

Times and Time Zones

All times are in EDT time to prevent confusion due to time zone crossing. See the UAL495 flight status page for this flight to view local times or setup timezone preferences in your user account.

Time Position Orientation Groundspeed Altitude Reporting Facility
EDT Latitude Longitude Course Direction KTS MPH feet Rate Location/Type
08:56AM 33.9333 -118.4333 90° East 182 209 1,400  Level Southern California TRACON
08:57AM 33.9222 -118.4700 250° West 223 257 2,500 2,280 Climbing Los Angeles Center
08:58AM 33.8594 -118.5092 207° Southwest 256 295 5,100 2,700 Climbing Los Angeles Center
08:59AM 33.7849 -118.6465 132° Southeast  Level FlightAware Approximate
08:59AM 33.7861 -118.5164 185° South 276 318 8,000  Level Los Angeles Center
09:00AM 33.7064 -118.5455 134° Southeast  Level FlightAware Approximate
09:00AM 33.7081 -118.5183 181° South 288 331 10,700  Level Los Angeles Center
09:01AM 33.6673 -118.4204 101° East  Level FlightAware Approximate
09:01AM 33.6689 -118.4267 117° Southeast 326 375 12,200  Level Los Angeles Center
09:02AM 33.6334 -118.2915 90° East  Level FlightAware Approximate
09:02AM 33.6444 -118.3136 105° East 371 427 14,400  Level Los Angeles Center
09:03AM 33.6511 -118.1894 86° East 388 447 16,500 1,980 Climbing Los Angeles Center
09:04AM 33.7275 -118.1017 44° Northeast 396 456 18,500 2,160 Climbing Los Angeles Center
09:05AM 33.8361 -118.0072 36° Northeast 405 466 20,900 2,160 Climbing Los Angeles Center
09:06AM 33.9292 -117.9219 37° Northeast 417 480 22,900 1,920 Climbing Los Angeles Center
09:07AM 34.0228 -117.8367 37° Northeast 422 486 24,800 1,740 Climbing Los Angeles Center
09:08AM 34.1147 -117.7425 40° Northeast 432 497 26,500 1,500 Climbing Los Angeles Center
09:09AM 34.1956 -117.6328 48° Northeast 440 506 27,900 1,320 Climbing Los Angeles Center
09:10AM 34.2789 -117.5197 48° Northeast 447 514 29,200 1,440 Climbing Los Angeles Center
09:11AM 34.3617 -117.4058 49° Northeast 451 519 30,800 1,380 Climbing Los Angeles Center
09:12AM 34.4394 -117.3011 48° Northeast 453 521 32,100 1,320 Climbing Los Angeles Center
09:13AM 34.5214 -117.1878 49° Northeast 452 520 33,500 1,200 Climbing Los Angeles Center
09:14AM 34.6036 -117.0744 49° Northeast 451 519 34,600 900 Climbing Los Angeles Center
09:15AM 34.6856 -116.9603 49° Northeast 452 520 35,500 840 Climbing Los Angeles Center
09:16AM 34.7853 -116.8211 49° Northeast 456 525 36,500 720 Climbing Los Angeles Center
09:17AM 34.8850 -116.6817 49° Northeast 456 525 37,000 240 Climbing Los Angeles Center
09:18AM 34.9664 -116.5694 48° Northeast 447 514 37,000  Level Los Angeles Center
09:19AM 35.0542 -116.4581 46° Northeast 456 525 37,000  Level Los Angeles Center
09:20AM 35.1425 -116.3478 46° Northeast 457 526 37,000  Level Los Angeles Center
09:21AM 35.2347 -116.2372 44° Northeast 464 534 37,000  Level Los Angeles Center
09:22AM 35.3206 -116.1272 46° Northeast 453 521 37,000  Level Los Angeles Center
09:23AM 35.4083 -116.0153 46° Northeast 455 524 37,000  Level Los Angeles Center
09:24AM 35.4969 -115.9058 45° Northeast 456 525 37,000  Level Los Angeles Center
09:25AM 35.5833 -115.7925 47° Northeast 444 511 37,000  Level Los Angeles Center
09:26AM 35.6694 -115.6856 45° Northeast 441 507 37,000  Level Los Angeles Center
09:27AM 35.7536 -115.5778 46° Northeast 440 506 37,000  Level Los Angeles Center
09:28AM 35.8378 -115.4711 46° Northeast 438 504 37,000  Level Los Angeles Center
09:29AM 35.9208 -115.3636 46° Northeast 436 502 37,000  Level Los Angeles Center
09:30AM 36.0025 -115.2586 46° Northeast 429 494 37,000  Level Los Angeles Center
09:31AM 36.0842 -115.1503 47° Northeast 432 497 37,000  Level Los Angeles Center
09:32AM 36.1861 -115.0228 45° Northeast 436 502 37,000  Level Los Angeles Center
09:33AM 36.2708 -114.9158 45° Northeast 437 503 37,000  Level Los Angeles Center
09:34AM 36.3564 -114.8081 45° Northeast 440 506 37,000  Level Los Angeles Center
09:35AM 36.4408 -114.6978 46° Northeast 441 507 37,000  Level Los Angeles Center
09:36AM 36.5256 -114.5861 47° Northeast 444 511 37,000  Level Los Angeles Center
09:37AM 36.6111 -114.4747 46° Northeast 445 512 37,000  Level Los Angeles Center
09:38AM 36.6978 -114.3625 46° Northeast 449 517 37,000  Level Los Angeles Center
09:39AM 36.7789 -114.2453 49° Northeast 448 516 37,000  Level Los Angeles Center
09:40AM 36.8431 -114.1100 59° Northeast 450 518 37,000  Level Los Angeles Center
09:41AM 36.9081 -113.9733 59° Northeast 456 525 37,000  Level Los Angeles Center
09:42AM 36.9561 -113.8714 59° Northeast 456 525 37,000  Level Los Angeles Center
09:43AM 37.0461 -113.6828 59° Northeast 452 520 37,000  Level Los Angeles Center
09:45AM 37.1103 -113.5472 59° Northeast 453 521 37,000  Level Los Angeles Center
09:46AM 37.1747 -113.4108 59° Northeast 455 524 37,000  Level Los Angeles Center
09:46AM 37.2006 -113.3569 59° Northeast 455 524 37,000  Level Salt Lake Center
09:47AM 37.2639 -113.2217 60° Northeast 453 521 37,000  Level Salt Lake Center
09:48AM 37.3272 -113.0856 60° Northeast 454 522 37,000  Level Salt Lake Center
09:49AM 37.3903 -112.9497 60° Northeast 454 522 37,000  Level Salt Lake Center
09:50AM 37.4522 -112.8139 60° Northeast 456 525 37,000  Level Salt Lake Center
09:51AM 37.5292 -112.6525 59° Northeast 459 528 37,000  Level Salt Lake Center
09:52AM 37.5919 -112.5150 60° Northeast 458 527 37,000  Level Salt Lake Center
09:53AM 37.6553 -112.3781 60° Northeast 457 526 37,000  Level Salt Lake Center
09:54AM 37.7047 -112.2303 67° East 459 528 37,000  Level Salt Lake Center
09:55AM 37.7319 -112.0725 78° East 462 532 37,000  Level Salt Lake Center
09:56AM 37.7589 -111.9164 78° East 458 527 37,000  Level Salt Lake Center
09:57AM 37.7872 -111.7589 77° East 460 529 37,000  Level Salt Lake Center
09:58AM 37.8156 -111.6022 77° East 459 528 37,000  Level Salt Lake Center
09:59AM 37.8442 -111.4467 77° East 456 525 37,000  Level Salt Lake Center
10:00AM 37.8647 -111.3228 78° East 451 519 37,000  Level Denver Center
10:00AM 37.8689 -111.2914 80° East 453 521 37,000  Level Salt Lake Center
10:01AM 37.8967 -111.1403 77° East 445 512 37,000  Level Salt Lake Center
10:02AM 37.9172 -111.0192 78° East 442 509 37,000  Level Denver Center
10:03AM 37.9444 -110.8669 77° East 443 510 37,000  Level Denver Center
10:04AM 37.9711 -110.7128 78° East 448 516 37,000  Level Denver Center
10:05AM 37.9975 -110.5481 78° East 445 512 37,000  Level Denver Center
10:06AM 38.0267 -110.3739 78° East 449 517 37,000  Level Denver Center
10:07AM 38.0497 -110.2228 79° East 454 522 37,000  Level Denver Center
10:08AM 38.0753 -110.0742 78° East 453 521 37,000  Level Denver Center
10:09AM 38.1033 -109.9014 78° East 450 518 37,000  Level Denver Center
10:10AM 38.1269 -109.7525 79° East 450 518 37,000  Level Denver Center
10:11AM 38.1556 -109.5792 78° East 451 519 37,000  Level Denver Center
10:12AM 38.1789 -109.4306 79° East 449 517 37,000  Level Denver Center
10:13AM 38.2061 -109.2542 79° East 454 522 37,000  Level Denver Center
10:14AM 38.2286 -109.1042 79° East 453 521 37,000  Level Denver Center
10:15AM 38.2514 -108.9561 79° East 446 513 37,000  Level Denver Center
10:16AM 38.2783 -108.7817 79° East 449 517 37,000  Level Denver Center
10:17AM 38.3011 -108.6317 79° East 452 520 37,000  Level Denver Center
10:18AM 38.3267 -108.4569 79° East 449 517 37,000  Level Denver Center
10:19AM 38.3494 -108.3083 79° East 448 516 37,000  Level Denver Center
10:20AM 38.3747 -108.1358 79° East 446 513 37,000  Level Denver Center
10:21AM 38.3958 -107.9864 80° East 447 514 37,000  Level Denver Center
10:22AM 38.4172 -107.8381 80° East 447 514 37,000  Level Denver Center
10:23AM 38.4414 -107.6661 80° East 443 510 37,000 -120 Level Denver Center
10:24AM 38.4819 -107.5256 70° East 447 514 36,800 -900 Descending Denver Center
10:26AM 38.5503 -107.3736 60° Northeast 442 509 35,200 -1,500 Descending Denver Center
10:27AM 38.6100 -107.2414 60° Northeast 448 516 33,700 -1,440 Descending Denver Center
10:28AM 38.6717 -107.1003 61° Northeast 464 534 32,300 -1,440 Descending Denver Center
10:29AM 38.7356 -106.9561 60° Northeast 465 535 30,800 -1,560 Descending Denver Center
10:30AM 38.8136 -106.7800 60° Northeast 474 545 29,100 -1,440 Descending Denver Center
10:31AM 38.8783 -106.6314 61° Northeast 478 550 27,900 -1,020 Descending Denver Center
10:32AM 38.9422 -106.4964 59° Northeast 475 547 27,000 -540 Descending Denver Center
10:33AM 39.0181 -106.3322 59° Northeast 480 552 26,900 -660 Descending Denver Center
10:34AM 39.0806 -106.1939 60° Northeast 473 544 25,700 -1,260 Descending Denver Center
10:35AM 39.1447 -106.0486 60° Northeast 457 526 24,400 -1,260 Descending Denver Center
10:36AM 39.2081 -105.9064 60° Northeast 454 522 23,200 -1,260 Descending Denver Center
10:37AM 39.2783 -105.7461 60° Northeast 439 505 21,900 -1,140 Descending Denver Center
10:38AM 39.3344 -105.6211 60° Northeast 403 464 20,900 -720 Descending Denver Center
10:39AM 39.3864 -105.5019 61° Northeast 381 438 20,500 -780 Descending Denver Center
10:40AM 39.4447 -105.3872 57° Northeast 349 402 19,300 -1,260 Descending Denver Center
10:41AM 39.4950 -105.2922 56° Northeast 328 377 18,000 -1,140 Descending Denver Center
10:42AM 39.5461 -105.1942 56° Northeast 326 375 17,000 -960 Descending Denver Center
10:43AM 39.5992 -105.0914 56° Northeast 317 365 16,100 -900 Descending Denver Center
10:44AM 39.6483 -104.9983 56° Northeast 313 360 15,200 -1,020 Descending Denver Center
10:45AM 39.7017 -104.9008 55° Northeast 316 364 14,100 -1,260 Descending Denver Center
10:46AM 39.7478 -104.8144 55° Northeast 283 326 12,700 -1,260 Descending Denver Center
10:47AM 39.7567 -104.6969 84° East 306 352 11,600 -840 Descending Denver Center
10:48AM 39.7536 -104.5942 92° East 274 315 11,000 -420 Descending Denver Center
10:49AM 39.7483 -104.4908 94° East 266 306 10,800 -660 Descending Denver Center
10:50AM 39.7656 -104.4086 75° East 250 288 9,700 -1,140 Descending Denver Center
10:51AM 39.8283 -104.4047 North 241 277 8,500 -1,020 Descending Denver Center
10:52AM 39.8639 -104.4622 309° West 188 216 7,600 -900 Descending Denver Center